Time;durP1;ratioP1;P1;durP2;ratioP2;P2;SDS_P1;SDS_P2;PMS_P1;PMS_P2;Temp;Humidity;BMP_temperature;BMP_pressure;BME280_temperature;BME280_humidity;BME280_pressure;Samples;Min_cycle;Max_cycle;Signal;HPM_P1;HPM_P2
2023/01/12 00:00:51;;;;;;;8.37;3.23;;;;;;;;;;772346;181;919892;-66
2023/01/12 00:03:17;;;;;;;6.03;3.83;;;;;;;;;;775109;179;919283;-61
2023/01/12 00:05:43;;;;;;;7.10;3.87;;;;;;;;;;772467;181;918762;-62
2023/01/12 00:08:09;;;;;;;6.70;3.73;;;;;;;;;;756446;181;920180;-62
2023/01/12 00:10:35;;;;;;;8.00;4.07;;;;;;;;;;761862;181;920263;-67
2023/01/12 00:13:00;;;;;;;6.13;3.93;;;;;;;;;;772337;182;822199;-67
2023/01/12 00:17:58;;;;;;;4.97;3.43;;;;;;;;;;771657;181;919511;-62
2023/01/12 00:20:24;;;;;;;4.97;3.63;;;;;;;;;;773677;180;918813;-63
2023/01/12 00:22:50;;;;;;;8.57;4.70;;;;;;;;;;777842;182;917638;-62
2023/01/12 00:25:15;;;;;;;8.95;4.20;;;;;;;;;;772817;179;918655;-68
2023/01/12 00:27:41;;;;;;;8.97;4.00;;;;;;;;;;772093;182;814563;-67
2023/01/12 00:30:07;;;;;;;6.20;4.05;;;;;;;;;;777049;182;919176;-62
2023/01/12 00:32:33;;;;;;;7.03;4.43;;;;;;;;;;771132;182;918676;-68
2023/01/12 00:34:59;;;;;;;9.67;4.77;;;;;;;;;;770224;181;920998;-69
2023/01/12 00:37:26;;;;;;;7.70;4.80;;;;;;;;;;774031;182;815014;-67
2023/01/12 00:39:51;;;;;;;5.93;3.93;;;;;;;;;;777433;183;619153;-63
2023/01/12 00:47:20;;;;;;;7.77;4.67;;;;;;;;;;777861;179;625597;-69
2023/01/12 00:49:46;;;;;;;6.73;4.97;;;;;;;;;;778884;181;617184;-69
2023/01/12 00:52:11;;;;;;;7.93;4.65;;;;;;;;;;763269;182;915502;-70
2023/01/12 00:54:37;;;;;;;7.60;5.37;;;;;;;;;;760758;183;920326;-62
2023/01/12 00:57:03;;;;;;;8.37;5.70;;;;;;;;;;762785;182;918461;-69
2023/01/12 00:59:29;;;;;;;6.63;4.63;;;;;;;;;;775461;181;818610;-69
2023/01/12 01:01:55;;;;;;;11.77;5.17;;;;;;;;;;775193;180;920179;-68
2023/01/12 01:04:21;;;;;;;8.07;5.10;;;;;;;;;;779947;179;831211;-62
2023/01/12 01:06:46;;;;;;;8.63;4.67;;;;;;;;;;772244;179;920744;-68
2023/01/12 01:09:12;;;;;;;6.77;4.63;;;;;;;;;;772016;180;921497;-68
2023/01/12 01:11:38;;;;;;;9.00;6.10;;;;;;;;;;770362;180;919063;-68
2023/01/12 01:14:04;;;;;;;6.63;4.87;;;;;;;;;;769715;181;914065;-63
2023/01/12 01:16:30;;;;;;;8.53;5.23;;;;;;;;;;769625;181;875796;-62
2023/01/12 01:18:56;;;;;;;6.10;5.03;;;;;;;;;;769958;180;920621;-68
2023/01/12 01:21:21;;;;;;;8.90;5.10;;;;;;;;;;777116;180;919447;-69
2023/01/12 01:23:47;;;;;;;8.67;6.10;;;;;;;;;;774938;179;919466;-63
2023/01/12 01:26:13;;;;;;;7.93;5.10;;;;;;;;;;774858;179;915301;-69
2023/01/12 01:28:39;;;;;;;13.65;6.55;;;;;;;;;;769918;181;923759;-63
2023/01/12 01:31:05;;;;;;;6.30;5.10;;;;;;;;;;768894;181;918651;-68
2023/01/12 01:33:31;;;;;;;13.40;5.63;;;;;;;;;;769415;182;919303;-68
2023/01/12 01:35:56;;;;;;;7.30;4.80;;;;;;;;;;775554;182;912039;-68
2023/01/12 01:38:22;;;;;;;8.33;5.93;;;;;;;;;;768953;182;918132;-67
2023/01/12 01:40:48;;;;;;;7.90;5.57;;;;;;;;;;767682;182;919237;-62
2023/01/12 01:43:14;;;;;;;12.30;6.03;;;;;;;;;;763542;182;920534;-63
2023/01/12 01:45:41;;;;;;;8.77;6.13;;;;;;;;;;772272;182;919466;-64
2023/01/12 01:48:06;;;;;;;10.77;6.90;;;;;;;;;;772037;180;918286;-68
2023/01/12 01:50:32;;;;;;;9.40;6.20;;;;;;;;;;770751;181;919559;-64
2023/01/12 01:52:58;;;;;;;9.10;5.97;;;;;;;;;;776192;182;817150;-62
2023/01/12 01:55:24;;;;;;;8.50;5.80;;;;;;;;;;755498;185;907933;-69
2023/01/12 01:57:50;;;;;;;11.17;6.73;;;;;;;;;;766730;179;915217;-68
2023/01/12 02:00:16;;;;;;;7.73;5.53;;;;;;;;;;761169;181;917303;-62
2023/01/12 02:02:42;;;;;;;8.10;6.45;;;;;;;;;;769283;180;915624;-69
2023/01/12 02:05:08;;;;;;;11.27;6.80;;;;;;;;;;768719;182;919661;-62
2023/01/12 02:07:34;;;;;;;11.20;6.83;;;;;;;;;;773453;182;815916;-68
2023/01/12 02:10:00;;;;;;;10.17;7.10;;;;;;;;;;778932;179;850805;-68
2023/01/12 02:17:29;;;;;;;11.47;7.60;;;;;;;;;;769827;182;1018378;-66
2023/01/12 02:19:56;;;;;;;8.67;7.07;;;;;;;;;;772548;183;915903;-68
2023/01/12 02:22:36;;;;;;;11.00;8.07;;;;;;;;;;763286;182;918851;-62
2023/01/12 02:25:08;;;;;;;11.77;7.40;;;;;;;;;;755535;182;919093;-67
2023/01/12 02:27:40;;;;;;;17.17;8.23;;;;;;;;;;763178;181;1021372;-62
2023/01/12 02:30:20;;;;;;;11.77;8.00;;;;;;;;;;755801;181;919747;-67
2023/01/12 02:32:50;;;;;;;10.00;7.70;;;;;;;;;;769570;180;858091;-63
2023/01/12 02:35:27;;;;;;;11.93;8.60;;;;;;;;;;779681;181;918336;-62
2023/01/12 02:37:56;;;;;;;13.70;8.33;;;;;;;;;;772351;181;919916;-62
2023/01/12 02:40:24;;;;;;;11.17;7.60;;;;;;;;;;773433;181;919128;-67
2023/01/12 02:42:54;;;;;;;20.63;8.23;;;;;;;;;;772480;181;919352;-67
2023/01/12 02:45:36;;;;;;;13.63;8.47;;;;;;;;;;777362;181;913530;-67
2023/01/12 02:48:03;;;;;;;11.73;7.90;;;;;;;;;;779586;180;919064;-67
2023/01/12 02:50:29;;;;;;;11.17;7.73;;;;;;;;;;770994;182;820492;-66
2023/01/12 02:52:55;;;;;;;11.23;8.00;;;;;;;;;;765010;182;918937;-68
2023/01/12 02:55:20;;;;;;;14.97;8.70;;;;;;;;;;770218;181;922287;-66
2023/01/12 02:57:46;;;;;;;13.77;8.20;;;;;;;;;;774834;181;914430;-66
2023/01/12 03:00:13;;;;;;;10.47;8.23;;;;;;;;;;770432;179;915304;-61
2023/01/12 03:02:39;;;;;;;11.07;8.53;;;;;;;;;;770348;182;915550;-62
2023/01/12 03:05:05;;;;;;;12.07;7.85;;;;;;;;;;771671;182;917969;-62
2023/01/12 03:07:31;;;;;;;10.80;7.70;;;;;;;;;;765771;182;879746;-67
2023/01/12 03:09:57;;;;;;;19.43;8.70;;;;;;;;;;765543;181;952784;-61
2023/01/12 03:12:23;;;;;;;12.93;8.50;;;;;;;;;;772666;182;916343;-62
2023/01/12 03:14:49;;;;;;;11.67;7.80;;;;;;;;;;771771;180;919803;-61
2023/01/12 03:17:15;;;;;;;11.93;9.13;;;;;;;;;;770490;181;918381;-67
2023/01/12 03:19:41;;;;;;;10.68;7.62;;;;;;;;;;771880;182;919721;-66
2023/01/12 03:22:07;;;;;;;12.70;8.00;;;;;;;;;;778356;180;918253;-61
2023/01/12 03:24:34;;;;;;;10.90;7.93;;;;;;;;;;768406;181;924712;-67
2023/01/12 03:27:01;;;;;;;12.23;8.07;;;;;;;;;;747290;185;919492;-67
2023/01/12 03:29:28;;;;;;;11.43;8.23;;;;;;;;;;769717;181;917516;-62
2023/01/12 03:31:54;;;;;;;13.33;9.67;;;;;;;;;;767676;180;919549;-61
2023/01/12 03:34:20;;;;;;;11.10;8.48;;;;;;;;;;772076;181;920213;-68
2023/01/12 03:36:48;;;;;;;9.87;8.33;;;;;;;;;;769780;181;897663;-62
2023/01/12 03:39:19;;;;;;;12.90;8.30;;;;;;;;;;780562;180;817222;-67
2023/01/12 03:41:46;;;;;;;11.30;8.27;;;;;;;;;;772530;180;819270;-62
2023/01/12 03:44:12;;;;;;;13.70;9.23;;;;;;;;;;768874;181;901770;-66
2023/01/12 03:46:38;;;;;;;11.67;8.70;;;;;;;;;;773617;181;909720;-62
2023/01/12 03:49:13;;;;;;;10.63;8.03;;;;;;;;;;755298;186;919344;-62
2023/01/12 03:51:39;;;;;;;12.80;9.00;;;;;;;;;;762165;181;918445;-62
2023/01/12 03:54:05;;;;;;;13.62;9.45;;;;;;;;;;770353;180;920927;-69
2023/01/12 03:56:30;;;;;;;13.90;9.70;;;;;;;;;;769716;181;918858;-62
2023/01/12 03:58:56;;;;;;;17.87;10.13;;;;;;;;;;768637;181;1021928;-62
2023/01/12 04:01:22;;;;;;;13.50;9.77;;;;;;;;;;768562;181;919852;-67
2023/01/12 04:03:48;;;;;;;16.70;9.80;;;;;;;;;;770947;180;919453;-67
2023/01/12 04:06:14;;;;;;;13.70;10.10;;;;;;;;;;771183;181;918190;-67
2023/01/12 04:08:40;;;;;;;15.60;10.83;;;;;;;;;;766084;181;859303;-61
2023/01/12 04:12:09;;;;;;;15.93;11.80;;;;;;;;;;770107;181;917717;-62
2023/01/12 04:13:31;;;;;;;10.30;8.50;;;;;;;;;;770681;182;919580;-62
2023/01/12 04:15:57;;;;;;;15.73;11.20;;;;;;;;;;768675;182;919229;-67
2023/01/12 04:18:23;;;;;;;15.50;10.07;;;;;;;;;;771724;181;919474;-68
2023/01/12 04:20:49;;;;;;;14.67;10.30;;;;;;;;;;781232;180;624803;-62
2023/01/12 04:23:15;;;;;;;14.50;10.70;;;;;;;;;;760120;182;917268;-68
2023/01/12 04:25:40;;;;;;;16.37;10.80;;;;;;;;;;765824;180;904185;-62
2023/01/12 04:28:06;;;;;;;13.17;10.57;;;;;;;;;;776647;182;918407;-62
2023/01/12 04:30:32;;;;;;;16.70;9.47;;;;;;;;;;763766;182;1021981;-62
2023/01/12 04:32:58;;;;;;;24.23;11.50;;;;;;;;;;766039;182;920831;-68
2023/01/12 04:35:24;;;;;;;20.50;12.00;;;;;;;;;;766135;181;919150;-63
2023/01/12 04:37:50;;;;;;;19.00;11.93;;;;;;;;;;775099;180;918533;-68
2023/01/12 04:40:16;;;;;;;19.20;13.43;;;;;;;;;;770741;182;816479;-69
2023/01/12 04:45:18;;;;;;;18.60;11.43;;;;;;;;;;770756;181;915787;-62
2023/01/12 04:47:44;;;;;;;22.43;12.20;;;;;;;;;;770968;180;919183;-67
2023/01/12 04:50:10;;;;;;;18.80;11.77;;;;;;;;;;773015;180;918874;-67
2023/01/12 04:52:36;;;;;;;18.00;12.03;;;;;;;;;;769985;181;917048;-62
2023/01/12 04:55:01;;;;;;;18.77;12.50;;;;;;;;;;774663;182;916833;-67
2023/01/12 04:57:27;;;;;;;21.40;12.00;;;;;;;;;;770437;180;917483;-61
2023/01/12 04:59:53;;;;;;;18.43;12.27;;;;;;;;;;772556;182;792123;-62
2023/01/12 05:02:19;;;;;;;20.13;12.17;;;;;;;;;;775324;179;921364;-68
2023/01/12 05:04:46;;;;;;;18.27;13.55;;;;;;;;;;772374;180;919388;-67
2023/01/12 05:07:11;;;;;;;17.50;11.30;;;;;;;;;;773180;181;918966;-69
2023/01/12 05:12:09;;;;;;;20.10;12.40;;;;;;;;;;764630;181;817042;-63
2023/01/12 05:14:35;;;;;;;18.83;11.80;;;;;;;;;;778213;182;628014;-67
2023/01/12 05:17:00;;;;;;;21.33;14.50;;;;;;;;;;774640;181;916157;-62
2023/01/12 05:19:26;;;;;;;15.60;11.57;;;;;;;;;;760120;185;625991;-62
2023/01/12 05:21:52;;;;;;;18.37;11.97;;;;;;;;;;771727;181;625998;-68
2023/01/12 05:24:18;;;;;;;20.73;13.97;;;;;;;;;;765354;182;919521;-68
2023/01/12 05:26:44;;;;;;;20.77;12.60;;;;;;;;;;764880;181;919499;-62
2023/01/12 05:29:10;;;;;;;23.60;14.40;;;;;;;;;;773827;179;915505;-69
2023/01/12 05:31:36;;;;;;;20.07;13.30;;;;;;;;;;771385;180;916780;-68
2023/01/12 05:34:02;;;;;;;20.65;13.95;;;;;;;;;;770373;182;918793;-68
2023/01/12 05:36:29;;;;;;;20.97;13.70;;;;;;;;;;777593;180;817195;-62
2023/01/12 05:38:55;;;;;;;22.93;14.50;;;;;;;;;;768032;180;918339;-62
2023/01/12 05:41:21;;;;;;;26.73;16.57;;;;;;;;;;773314;181;815814;-68
2023/01/12 05:43:49;;;;;;;22.90;15.70;;;;;;;;;;778335;181;670920;-62
2023/01/12 05:46:15;;;;;;;23.37;15.30;;;;;;;;;;771929;181;716413;-62
2023/01/12 05:48:41;;;;;;;23.13;14.53;;;;;;;;;;765131;183;916711;-62
2023/01/12 05:51:07;;;;;;;24.13;15.63;;;;;;;;;;765641;182;918830;-62
2023/01/12 05:53:32;;;;;;;21.60;14.80;;;;;;;;;;774333;181;796104;-69
2023/01/12 05:55:58;;;;;;;25.70;15.03;;;;;;;;;;771709;181;1031243;-62
2023/01/12 05:58:24;;;;;;;20.87;14.60;;;;;;;;;;773216;180;915486;-68
2023/01/12 06:00:50;;;;;;;19.93;13.97;;;;;;;;;;780521;179;918763;-62
2023/01/12 06:03:16;;;;;;;26.20;15.60;;;;;;;;;;774334;181;820444;-68
2023/01/12 06:05:42;;;;;;;19.50;14.47;;;;;;;;;;768161;181;920128;-62
2023/01/12 06:08:07;;;;;;;23.60;14.83;;;;;;;;;;768034;181;917165;-62
2023/01/12 06:10:35;;;;;;;23.10;15.40;;;;;;;;;;772797;181;920434;-68
2023/01/12 06:15:31;;;;;;;25.27;14.00;;;;;;;;;;774824;181;920632;-62
2023/01/12 06:17:57;;;;;;;23.43;15.20;;;;;;;;;;776068;181;919616;-70
2023/01/12 06:20:22;;;;;;;20.60;14.00;;;;;;;;;;772557;182;919034;-69
2023/01/12 06:22:48;;;;;;;28.10;15.70;;;;;;;;;;773827;182;764411;-62
2023/01/12 06:25:14;;;;;;;30.75;16.20;;;;;;;;;;776192;182;915992;-69
2023/01/12 06:27:40;;;;;;;21.37;13.93;;;;;;;;;;770400;181;1020494;-68
2023/01/12 06:30:06;;;;;;;23.30;15.50;;;;;;;;;;771712;180;918187;-62
2023/01/12 06:32:32;;;;;;;26.57;15.63;;;;;;;;;;763323;182;917413;-62
2023/01/12 06:34:58;;;;;;;23.43;15.37;;;;;;;;;;753299;184;819160;-68
2023/01/12 06:37:24;;;;;;;22.17;15.80;;;;;;;;;;756739;182;917968;-68
2023/01/12 06:39:50;;;;;;;24.73;14.83;;;;;;;;;;771069;182;816986;-68
2023/01/12 06:44:47;;;;;;;27.20;15.90;;;;;;;;;;767890;181;935646;-62
2023/01/12 06:47:13;;;;;;;22.55;16.08;;;;;;;;;;770785;182;920182;-61
2023/01/12 06:49:40;;;;;;;24.98;15.93;;;;;;;;;;773938;182;917222;-63
2023/01/12 06:52:05;;;;;;;28.50;16.07;;;;;;;;;;762040;181;919084;-61
2023/01/12 06:54:31;;;;;;;28.30;16.50;;;;;;;;;;771219;180;918962;-62
2023/01/12 06:56:57;;;;;;;21.90;14.07;;;;;;;;;;765813;182;916691;-68
2023/01/12 06:59:23;;;;;;;22.20;15.07;;;;;;;;;;763348;183;914433;-62
2023/01/12 07:01:49;;;;;;;23.63;15.30;;;;;;;;;;763411;182;920780;-62
2023/01/12 07:04:15;;;;;;;23.90;14.50;;;;;;;;;;772783;180;920120;-68
2023/01/12 07:06:40;;;;;;;19.87;12.90;;;;;;;;;;778521;181;816566;-62
2023/01/12 07:09:06;;;;;;;25.10;13.00;;;;;;;;;;768950;181;919066;-69
2023/01/12 07:11:32;;;;;;;18.17;12.20;;;;;;;;;;772866;179;917308;-62
2023/01/12 07:13:58;;;;;;;32.13;13.77;;;;;;;;;;779015;179;912654;-62
2023/01/12 07:16:24;;;;;;;19.87;13.50;;;;;;;;;;771659;181;919355;-62
2023/01/12 07:18:50;;;;;;;20.20;11.97;;;;;;;;;;765855;180;919174;-62
2023/01/12 07:21:18;;;;;;;16.73;11.13;;;;;;;;;;772945;181;916310;-68
2023/01/12 07:23:42;;;;;;;20.45;11.90;;;;;;;;;;768699;181;916840;-62
2023/01/12 07:26:08;;;;;;;14.20;10.40;;;;;;;;;;756831;181;917910;-68
2023/01/12 07:28:34;;;;;;;21.00;11.57;;;;;;;;;;769871;181;919727;-62
2023/01/12 07:31:00;;;;;;;21.40;12.60;;;;;;;;;;773811;182;919488;-68
2023/01/12 07:33:25;;;;;;;18.73;11.73;;;;;;;;;;763481;182;919323;-68
2023/01/12 07:35:51;;;;;;;21.20;12.63;;;;;;;;;;760163;182;917059;-68
2023/01/12 07:38:17;;;;;;;24.93;12.80;;;;;;;;;;764411;182;925267;-62
2023/01/12 07:40:43;;;;;;;23.10;13.45;;;;;;;;;;761312;182;919830;-68
2023/01/12 07:43:10;;;;;;;24.70;14.40;;;;;;;;;;761246;181;920311;-68
2023/01/12 07:45:34;;;;;;;22.33;15.17;;;;;;;;;;762156;181;923032;-68
2023/01/12 07:48:00;;;;;;;22.93;14.07;;;;;;;;;;755176;185;919450;-62
2023/01/12 07:50:26;;;;;;;24.80;16.43;;;;;;;;;;753764;185;929234;-70
2023/01/12 07:52:53;;;;;;;23.17;15.90;;;;;;;;;;754866;184;874729;-69
2023/01/12 07:55:18;;;;;;;27.53;16.10;;;;;;;;;;756487;185;919569;-62
2023/01/12 07:57:59;;;;;;;25.27;14.43;;;;;;;;;;773249;180;817918;-62
2023/01/12 08:00:24;;;;;;;25.97;16.20;;;;;;;;;;775566;177;819797;-62
2023/01/12 08:02:50;;;;;;;25.77;16.83;;;;;;;;;;756859;182;918826;-69
2023/01/12 08:05:16;;;;;;;21.90;14.45;;;;;;;;;;775381;182;938947;-62
2023/01/12 08:07:42;;;;;;;23.03;15.17;;;;;;;;;;773424;179;918777;-62
2023/01/12 08:10:08;;;;;;;22.53;15.57;;;;;;;;;;773052;180;919162;-63
2023/01/12 08:12:34;;;;;;;23.30;15.47;;;;;;;;;;774507;183;913907;-71
2023/01/12 08:15:02;;;;;;;28.80;16.17;;;;;;;;;;766197;182;913123;-62
2023/01/12 08:17:26;;;;;;;30.58;14.68;;;;;;;;;;769302;183;916544;-69
2023/01/12 08:19:54;;;;;;;25.73;16.57;;;;;;;;;;767689;182;919249;-63
2023/01/12 08:22:19;;;;;;;23.33;15.80;;;;;;;;;;759867;184;916371;-69
2023/01/12 08:24:46;;;;;;;26.83;16.03;;;;;;;;;;773908;181;917547;-62
2023/01/12 08:27:12;;;;;;;20.05;14.43;;;;;;;;;;774489;180;917349;-63
2023/01/12 08:29:39;;;;;;;25.43;15.80;;;;;;;;;;779584;180;858923;-69
2023/01/12 08:32:05;;;;;;;23.70;15.20;;;;;;;;;;775654;181;861396;-63
2023/01/12 08:34:30;;;;;;;20.67;13.67;;;;;;;;;;762356;181;918949;-63
2023/01/12 08:36:56;;;;;;;20.27;13.38;;;;;;;;;;756655;186;919137;-69
2023/01/12 08:39:22;;;;;;;24.43;13.37;;;;;;;;;;765911;182;918426;-70
2023/01/12 08:41:48;;;;;;;21.73;13.00;;;;;;;;;;773131;182;918761;-62
2023/01/12 08:44:14;;;;;;;18.65;11.73;;;;;;;;;;768148;182;919120;-69
2023/01/12 08:46:48;;;;;;;17.83;10.40;;;;;;;;;;768481;182;916240;-62
2023/01/12 08:49:13;;;;;;;17.57;11.53;;;;;;;;;;766864;182;919264;-62
2023/01/12 08:51:39;;;;;;;14.23;9.73;;;;;;;;;;770928;180;918643;-62
2023/01/12 08:54:05;;;;;;;15.13;8.57;;;;;;;;;;771769;179;922758;-62
2023/01/12 08:56:31;;;;;;;14.90;9.00;;;;;;;;;;773338;179;919455;-62
2023/01/12 08:58:57;;;;;;;16.20;9.53;;;;;;;;;;770839;181;921081;-62
2023/01/12 09:01:23;;;;;;;12.90;8.67;;;;;;;;;;768340;182;919292;-63
2023/01/12 09:03:48;;;;;;;15.13;8.87;;;;;;;;;;762352;182;919141;-69
2023/01/12 09:06:14;;;;;;;13.90;9.00;;;;;;;;;;770462;183;814978;-62
2023/01/12 09:08:40;;;;;;;10.20;7.70;;;;;;;;;;767957;182;815671;-69
2023/01/12 09:11:06;;;;;;;13.07;8.37;;;;;;;;;;769729;182;902874;-69
2023/01/12 09:13:32;;;;;;;11.60;7.80;;;;;;;;;;771401;181;919478;-63
2023/01/12 09:16:01;;;;;;;12.90;7.57;;;;;;;;;;769765;182;917971;-63
2023/01/12 09:18:26;;;;;;;13.73;7.40;;;;;;;;;;767412;182;871488;-63
2023/01/12 09:20:52;;;;;;;13.83;7.20;;;;;;;;;;763292;183;918958;-71
2023/01/12 09:23:18;;;;;;;18.03;8.00;;;;;;;;;;767745;181;919749;-63
2023/01/12 09:25:44;;;;;;;11.27;7.90;;;;;;;;;;760291;182;919623;-63
2023/01/12 09:28:10;;;;;;;15.20;9.17;;;;;;;;;;759255;185;923911;-63
2023/01/12 09:30:36;;;;;;;11.93;7.43;;;;;;;;;;769666;182;917736;-69
2023/01/12 09:33:01;;;;;;;14.40;8.67;;;;;;;;;;770167;180;919304;-69
2023/01/12 09:35:27;;;;;;;13.87;7.17;;;;;;;;;;777940;178;915343;-69
2023/01/12 09:37:53;;;;;;;11.30;7.07;;;;;;;;;;774585;181;1024796;-63
2023/01/12 09:40:19;;;;;;;12.70;7.20;;;;;;;;;;765009;181;919254;-62
2023/01/12 09:47:50;;;;;;;13.20;6.50;;;;;;;;;;773800;180;919431;-61
2023/01/12 09:50:16;;;;;;;12.37;6.73;;;;;;;;;;772091;182;918009;-62
2023/01/12 09:52:43;;;;;;;10.07;6.80;;;;;;;;;;772513;182;921319;-63
2023/01/12 09:55:24;;;;;;;11.50;6.73;;;;;;;;;;775530;181;847630;-63
2023/01/12 09:58:05;;;;;;;12.30;6.47;;;;;;;;;;775190;180;918205;-69
2023/01/12 10:00:30;;;;;;;10.03;6.50;;;;;;;;;;765836;180;819759;-69
2023/01/12 10:03:02;;;;;;;10.13;6.90;;;;;;;;;;764115;182;918558;-62
2023/01/12 10:05:46;;;;;;;9.70;6.40;;;;;;;;;;772241;181;919817;-71
2023/01/12 10:08:12;;;;;;;9.98;6.57;;;;;;;;;;774312;181;918545;-70
2023/01/12 10:10:38;;;;;;;12.10;6.30;;;;;;;;;;777908;180;818459;-68
2023/01/12 10:13:04;;;;;;;14.23;7.00;;;;;;;;;;769425;182;1121793;-69
2023/01/12 10:15:33;;;;;;;12.93;7.00;;;;;;;;;;770216;181;878629;-69
2023/01/12 10:17:59;;;;;;;11.93;7.83;;;;;;;;;;773073;180;911548;-62
2023/01/12 10:20:27;;;;;;;14.23;7.27;;;;;;;;;;765854;182;917855;-61
2023/01/12 10:22:53;;;;;;;10.57;7.13;;;;;;;;;;756903;183;916897;-61
2023/01/12 10:25:29;;;;;;;14.87;7.70;;;;;;;;;;755212;182;918674;-62
2023/01/12 10:27:55;;;;;;;9.63;6.60;;;;;;;;;;773172;179;824233;-72
2023/01/12 10:30:24;;;;;;;9.25;5.97;;;;;;;;;;772356;181;814989;-62
2023/01/12 10:32:50;;;;;;;11.27;5.40;;;;;;;;;;763933;182;858833;-68
2023/01/12 10:35:16;;;;;;;6.33;4.00;;;;;;;;;;758893;182;921688;-69
2023/01/12 10:37:42;;;;;;;8.03;4.40;;;;;;;;;;758652;186;920436;-66
2023/01/12 10:40:08;;;;;;;6.03;3.13;;;;;;;;;;753997;182;920140;-68
2023/01/12 10:45:11;;;;;;;6.83;3.40;;;;;;;;;;769501;182;919269;-62
2023/01/12 10:47:37;;;;;;;6.37;3.90;;;;;;;;;;776378;180;920528;-68
2023/01/12 10:50:08;;;;;;;5.30;3.47;;;;;;;;;;772828;180;920143;-68
2023/01/12 10:52:34;;;;;;;5.23;3.17;;;;;;;;;;774231;180;920076;-63
2023/01/12 10:55:00;;;;;;;7.85;3.37;;;;;;;;;;774395;181;1019267;-61
2023/01/12 10:57:26;;;;;;;6.17;2.80;;;;;;;;;;778563;179;802110;-68
2023/01/12 10:59:52;;;;;;;6.87;3.10;;;;;;;;;;768178;182;914311;-70
2023/01/12 11:02:18;;;;;;;3.80;2.50;;;;;;;;;;768382;180;908862;-62
2023/01/12 11:04:44;;;;;;;4.50;4.03;;;;;;;;;;778856;181;917142;-62
2023/01/12 11:07:10;;;;;;;4.70;2.20;;;;;;;;;;772987;182;918830;-62
2023/01/12 11:09:36;;;;;;;8.30;3.27;;;;;;;;;;769435;181;913211;-67
2023/01/12 11:12:02;;;;;;;4.33;2.73;;;;;;;;;;770615;179;912137;-62
2023/01/12 11:14:28;;;;;;;10.10;3.07;;;;;;;;;;763206;182;815460;-68
2023/01/12 11:16:54;;;;;;;6.13;2.90;;;;;;;;;;772808;181;919818;-67
2023/01/12 11:19:23;;;;;;;5.20;3.20;;;;;;;;;;772222;180;918173;-62
2023/01/12 11:21:49;;;;;;;7.20;3.20;;;;;;;;;;772511;182;918818;-68
2023/01/12 11:24:18;;;;;;;10.30;3.27;;;;;;;;;;766388;181;921402;-62
2023/01/12 11:26:48;;;;;;;6.83;3.30;;;;;;;;;;771025;182;918506;-67
2023/01/12 11:29:33;;;;;;;6.13;2.77;;;;;;;;;;769656;179;918238;-68
2023/01/12 11:31:59;;;;;;;7.20;4.53;;;;;;;;;;774236;179;918421;-66
2023/01/12 11:34:25;;;;;;;4.73;2.17;;;;;;;;;;773724;181;909086;-61
2023/01/12 11:36:51;;;;;;;5.47;3.07;;;;;;;;;;764462;183;919144;-69
2023/01/12 11:39:19;;;;;;;5.53;2.45;;;;;;;;;;772607;179;920464;-68
2023/01/12 11:43:47;;;;;;;5.97;2.40;;;;;;;;;;774455;180;923027;-67
2023/01/12 11:44:11;;;;;;;5.07;2.00;;;;;;;;;;777107;181;921358;-61
2023/01/12 11:46:37;;;;;;;3.87;2.43;;;;;;;;;;772730;179;916219;-61
2023/01/12 11:49:04;;;;;;;6.93;2.42;;;;;;;;;;765310;180;1021447;-61
2023/01/12 11:51:30;;;;;;;5.90;3.23;;;;;;;;;;774936;181;918904;-61
2023/01/12 11:53:56;;;;;;;7.07;2.50;;;;;;;;;;769059;183;918733;-67
2023/01/12 11:56:24;;;;;;;9.10;2.10;;;;;;;;;;771494;181;918407;-61
2023/01/12 11:58:53;;;;;;;7.50;2.50;;;;;;;;;;771380;183;816304;-62
2023/01/12 12:01:19;;;;;;;4.77;2.00;;;;;;;;;;756848;184;819480;-61
2023/01/12 12:03:48;;;;;;;4.93;2.57;;;;;;;;;;756135;185;919092;-61
2023/01/12 12:06:31;;;;;;;4.60;2.63;;;;;;;;;;757026;181;1019422;-68
2023/01/12 12:09:01;;;;;;;5.93;2.63;;;;;;;;;;744750;184;917196;-68
2023/01/12 12:11:48;;;;;;;7.63;2.87;;;;;;;;;;773794;179;917098;-68
2023/01/12 12:14:31;;;;;;;4.10;2.17;;;;;;;;;;774008;181;919023;-61
2023/01/12 12:16:59;;;;;;;6.40;2.43;;;;;;;;;;771409;182;920118;-68
2023/01/12 12:19:23;;;;;;;4.20;2.20;;;;;;;;;;774670;181;918753;-62
2023/01/12 12:21:49;;;;;;;4.23;2.20;;;;;;;;;;772617;182;922239;-62
2023/01/12 12:24:35;;;;;;;7.33;2.50;;;;;;;;;;773351;181;919241;-69
2023/01/12 12:27:07;;;;;;;8.77;2.87;;;;;;;;;;767198;182;921838;-68
2023/01/12 12:29:33;;;;;;;6.30;3.13;;;;;;;;;;757543;182;921961;-68
2023/01/12 12:32:09;;;;;;;7.07;2.97;;;;;;;;;;772819;182;917498;-62
2023/01/12 12:34:36;;;;;;;7.60;2.77;;;;;;;;;;767422;180;915614;-61
2023/01/12 12:37:05;;;;;;;6.78;3.12;;;;;;;;;;765943;182;919288;-61
2023/01/12 12:39:34;;;;;;;5.07;2.47;;;;;;;;;;770182;180;879672;-67
2023/01/12 12:47:07;;;;;;;6.03;3.10;;;;;;;;;;768136;181;916338;-61
2023/01/12 12:49:34;;;;;;;5.10;3.00;;;;;;;;;;765295;182;918536;-61
2023/01/12 12:51:59;;;;;;;7.78;3.37;;;;;;;;;;773935;182;922519;-61
2023/01/12 12:54:25;;;;;;;8.13;2.63;;;;;;;;;;769376;181;917660;-61
2023/01/12 12:56:51;;;;;;;6.23;2.90;;;;;;;;;;769068;180;930987;-68
2023/01/12 12:59:36;;;;;;;6.67;3.10;;;;;;;;;;773002;180;919331;-61
2023/01/12 13:02:02;;;;;;;6.18;3.60;;;;;;;;;;772495;181;918380;-68
2023/01/12 13:04:45;;;;;;;6.73;3.37;;;;;;;;;;777589;180;919321;-61
2023/01/12 13:07:10;;;;;;;7.77;2.80;;;;;;;;;;775993;178;915636;-61
2023/01/12 13:09:36;;;;;;;10.07;2.93;;;;;;;;;;765016;181;846448;-62
2023/01/12 13:12:11;;;;;;;4.83;2.90;;;;;;;;;;771601;181;918526;-69
2023/01/12 13:14:37;;;;;;;6.43;3.23;;;;;;;;;;768633;181;919240;-68
2023/01/12 13:17:20;;;;;;;6.43;3.60;;;;;;;;;;771659;181;921585;-69
2023/01/12 13:19:46;;;;;;;6.00;2.73;;;;;;;;;;766616;181;914453;-69
2023/01/12 13:22:32;;;;;;;4.47;2.70;;;;;;;;;;758492;182;918831;-70
2023/01/12 13:24:58;;;;;;;5.10;2.67;;;;;;;;;;758315;181;932081;-69
2023/01/12 13:27:30;;;;;;;5.50;3.20;;;;;;;;;;770983;179;916151;-69
2023/01/12 13:30:15;;;;;;;12.17;3.73;;;;;;;;;;772408;180;814237;-68
2023/01/12 13:32:41;;;;;;;4.83;3.13;;;;;;;;;;774020;180;918903;-68
2023/01/12 13:35:22;;;;;;;4.07;2.63;;;;;;;;;;770528;181;932556;-69
2023/01/12 13:37:48;;;;;;;6.63;2.37;;;;;;;;;;779957;179;919169;-63
2023/01/12 13:40:18;;;;;;;5.40;3.20;;;;;;;;;;763774;181;924104;-61
2023/01/12 13:45:16;;;;;;;4.47;2.67;;;;;;;;;;771755;181;920499;-62
2023/01/12 13:47:42;;;;;;;4.40;2.43;;;;;;;;;;772218;182;917591;-68
2023/01/12 13:50:07;;;;;;;7.00;3.63;;;;;;;;;;773073;180;922553;-61
2023/01/12 13:52:34;;;;;;;8.77;3.13;;;;;;;;;;753793;182;919177;-62
2023/01/12 13:54:59;;;;;;;6.17;3.33;;;;;;;;;;768123;181;920662;-62
2023/01/12 13:57:25;;;;;;;12.60;3.60;;;;;;;;;;768518;181;917937;-61
2023/01/12 13:59:55;;;;;;;4.60;3.40;;;;;;;;;;767012;183;919022;-68
2023/01/12 14:02:21;;;;;;;9.20;3.70;;;;;;;;;;769546;182;924950;-62
2023/01/12 14:04:54;;;;;;;5.50;3.00;;;;;;;;;;774751;181;816714;-62
2023/01/12 14:07:21;;;;;;;7.93;3.80;;;;;;;;;;770491;179;912657;-62
2023/01/12 14:09:49;;;;;;;11.40;3.97;;;;;;;;;;765046;180;1010285;-69
2023/01/12 14:12:17;;;;;;;5.63;3.40;;;;;;;;;;768299;182;903810;-69
2023/01/12 14:19:49;;;;;;;8.30;3.27;;;;;;;;;;770175;180;918543;-62
2023/01/12 14:22:16;;;;;;;10.40;3.53;;;;;;;;;;768972;180;916993;-69
2023/01/12 14:24:43;;;;;;;6.40;3.33;;;;;;;;;;780757;181;715569;-62
2023/01/12 14:27:13;;;;;;;7.37;3.90;;;;;;;;;;770555;181;999537;-62
2023/01/12 14:29:39;;;;;;;6.50;3.40;;;;;;;;;;769796;180;919390;-62
2023/01/12 14:32:06;;;;;;;11.37;4.50;;;;;;;;;;773682;182;941846;-68
2023/01/12 14:34:33;;;;;;;11.67;4.23;;;;;;;;;;783834;178;633717;-68
2023/01/12 14:36:58;;;;;;;14.18;4.37;;;;;;;;;;775784;181;816926;-62
2023/01/12 14:39:23;;;;;;;7.50;3.57;;;;;;;;;;771404;179;925158;-68
2023/01/12 14:46:53;;;;;;;7.47;3.87;;;;;;;;;;759969;182;919364;-63
2023/01/12 14:49:20;;;;;;;7.63;3.40;;;;;;;;;;767670;181;920587;-62
2023/01/12 14:52:01;;;;;;;7.43;3.57;;;;;;;;;;769490;182;919226;-69
2023/01/12 14:54:27;;;;;;;10.67;3.50;;;;;;;;;;773937;180;822579;-61
2023/01/12 14:56:57;;;;;;;10.30;3.30;;;;;;;;;;773452;180;761720;-61
2023/01/12 14:59:22;;;;;;;7.60;3.83;;;;;;;;;;765088;181;914384;-68
2023/01/12 15:01:47;;;;;;;6.63;4.20;;;;;;;;;;768446;182;917139;-62
2023/01/12 15:04:13;;;;;;;7.00;3.35;;;;;;;;;;769161;181;914101;-69
2023/01/12 15:06:39;;;;;;;5.53;3.00;;;;;;;;;;769134;182;920594;-69